Time;durP1;ratioP1;P1;durP2;ratioP2;P2;SDS_P1;SDS_P2;PMS_P1;PMS_P2;Temp;Humidity;BMP_temperature;BMP_pressure;BME280_temperature;BME280_humidity;BME280_pressure;Samples;Min_cycle;Max_cycle;Signal;HPM_P1;HPM_P2
2021/12/07 00:01:54;;;;;;;10.68;8.77;;;3.70;83.90;;;;;;5029574;28;20554;-69
2021/12/07 00:04:20;;;;;;;9.13;7.35;;;3.70;84.00;;;;;;5028149;28;20056;-72
2021/12/07 00:06:46;;;;;;;9.40;7.30;;;3.70;84.20;;;;;;5030719;28;20488;-72
2021/12/07 00:09:15;;;;;;;10.10;8.23;;;3.70;84.20;;;;;;5039660;28;20141;-72
2021/12/07 00:11:41;;;;;;;11.38;7.75;;;3.70;84.30;;;;;;5029014;28;20029;-72
2021/12/07 00:14:14;;;;;;;10.55;8.32;;;3.70;84.30;;;;;;5029806;28;20481;-72
2021/12/07 00:16:43;;;;;;;9.52;7.60;;;3.70;84.30;;;;;;5010243;28;20484;-72
2021/12/07 00:19:09;;;;;;;11.07;8.82;;;3.70;84.30;;;;;;5010118;28;20025;-72
2021/12/07 00:21:35;;;;;;;10.77;7.93;;;3.70;84.20;;;;;;5021966;28;20037;-69
2021/12/07 00:24:02;;;;;;;11.70;8.80;;;3.70;84.20;;;;;;5048712;28;20103;-72
2021/12/07 00:26:27;;;;;;;10.90;8.07;;;3.70;84.20;;;;;;5029477;28;20515;-72
2021/12/07 00:28:55;;;;;;;9.48;7.55;;;3.70;84.20;;;;;;5028005;28;20233;-72
2021/12/07 00:31:29;;;;;;;10.23;8.15;;;3.70;84.30;;;;;;5027547;28;20473;-71
2021/12/07 00:36:46;;;;;;;8.88;7.70;;;3.70;84.40;;;;;;5020874;28;20091;-72
2021/12/07 00:39:15;;;;;;;11.18;8.55;;;3.70;84.30;;;;;;5029708;28;20040;-72
2021/12/07 00:41:41;;;;;;;8.50;7.00;;;3.70;84.10;;;;;;5028417;28;20032;-71
2021/12/07 00:44:08;;;;;;;9.50;7.00;;;3.70;84.60;;;;;;5027613;28;20480;-72
2021/12/07 00:46:35;;;;;;;7.45;6.07;;;3.70;84.00;;;;;;5028947;28;20037;-73
2021/12/07 00:49:02;;;;;;;6.90;5.93;;;3.70;84.00;;;;;;5028773;28;20052;-73
2021/12/07 00:51:27;;;;;;;5.75;4.95;;;3.60;84.00;;;;;;5028594;28;20021;-74
2021/12/07 00:53:54;;;;;;;5.40;4.55;;;3.70;84.20;;;;;;5026337;28;20435;-73
2021/12/07 00:56:21;;;;;;;6.38;5.32;;;3.60;84.20;;;;;;5023449;28;20723;-73
2021/12/07 00:58:47;;;;;;;7.70;6.07;;;3.60;84.30;;;;;;5027858;28;20343;-74
2021/12/07 01:01:16;;;;;;;7.80;5.85;;;3.60;84.40;;;;;;5028864;28;20034;-73
2021/12/07 01:03:43;;;;;;;7.45;6.40;;;3.60;84.40;;;;;;5029267;28;20025;-73
2021/12/07 01:25:08;;;;;;;8.95;7.22;;;3.50;85.00;;;;;;5028067;28;20064;-73
2021/12/07 01:27:37;;;;;;;8.70;7.25;;;3.50;85.10;;;;;;5027164;28;20029;-73
2021/12/07 01:51:06;;;;;;;9.27;8.27;;;3.60;85.30;;;;;;5027940;28;20519;-74
2021/12/07 02:01:46;;;;;;;10.55;9.10;;;3.50;85.30;;;;;;5028776;28;20574;-71
2021/12/07 02:04:12;;;;;;;11.65;9.77;;;3.50;85.40;;;;;;5027816;28;20029;-71
2021/12/07 02:06:38;;;;;;;12.15;10.80;;;3.50;85.50;;;;;;5031752;28;20128;-71
2021/12/07 02:09:05;;;;;;;12.77;10.55;;;3.50;85.50;;;;;;5027581;28;20431;-71
2021/12/07 02:11:32;;;;;;;14.00;10.95;;;3.50;85.70;;;;;;5031471;28;20450;-71
2021/12/07 02:16:28;;;;;;;13.48;11.48;;;3.50;85.70;;;;;;5031638;28;20041;-71
2021/12/07 02:18:54;;;;;;;14.15;11.77;;;3.50;85.80;;;;;;5031564;28;20021;-71
2021/12/07 02:21:24;;;;;;;17.05;11.20;;;3.50;85.90;;;;;;5031105;28;20034;-71
2021/12/07 02:23:50;;;;;;;12.98;11.02;;;3.50;85.80;;;;;;5031555;28;20033;-71
2021/12/07 02:26:16;;;;;;;17.88;13.25;;;3.60;85.80;;;;;;5030803;28;20033;-71
2021/12/07 02:28:42;;;;;;;15.73;12.63;;;3.60;85.80;;;;;;5031278;28;20029;-71
2021/12/07 02:31:09;;;;;;;16.20;12.68;;;3.60;85.90;;;;;;5031247;28;20068;-72
2021/12/07 02:33:36;;;;;;;15.95;12.65;;;3.60;86.00;;;;;;5031293;28;20670;-71
2021/12/07 02:36:03;;;;;;;15.23;12.38;;;3.60;86.10;;;;;;5031206;28;20025;-71
2021/12/07 02:38:29;;;;;;;18.00;13.75;;;3.50;86.00;;;;;;5031509;28;20030;-71
2021/12/07 02:40:55;;;;;;;15.43;12.77;;;3.60;86.10;;;;;;5030044;28;20484;-71
2021/12/07 02:43:20;;;;;;;16.73;12.50;;;3.60;86.10;;;;;;5022145;28;20037;-71
2021/12/07 02:45:46;;;;;;;15.70;12.55;;;3.60;86.10;;;;;;5030182;28;20064;-71
2021/12/07 02:48:12;;;;;;;15.48;12.82;;;3.60;86.10;;;;;;5030799;28;20065;-71
2021/12/07 02:50:37;;;;;;;17.98;14.27;;;3.60;86.10;;;;;;5029210;28;20169;-71
2021/12/07 02:53:03;;;;;;;17.33;13.10;;;3.60;86.10;;;;;;5031068;28;20591;-71
2021/12/07 02:55:32;;;;;;;16.15;12.52;;;3.60;86.10;;;;;;5030382;28;20057;-71
2021/12/07 02:57:58;;;;;;;16.80;11.88;;;3.60;86.20;;;;;;5029513;28;20033;-71
2021/12/07 03:00:30;;;;;;;21.35;14.75;;;3.60;86.10;;;;;;5012951;28;20040;-71
2021/12/07 03:03:01;;;;;;;15.40;12.82;;;3.60;86.10;;;;;;5029451;28;20463;-71
2021/12/07 03:27:23;;;;;;;20.00;13.85;;;3.50;86.20;;;;;;5030534;28;20099;-73
2021/12/07 03:29:49;;;;;;;18.40;14.55;;;3.50;86.10;;;;;;5029319;28;20532;-73
2021/12/07 03:32:14;;;;;;;18.02;13.90;;;3.50;86.10;;;;;;5030584;28;20100;-73
2021/12/07 03:34:40;;;;;;;16.13;12.30;;;3.50;86.10;;;;;;5029119;28;20029;-73
2021/12/07 03:37:06;;;;;;;18.23;13.10;;;3.50;86.00;;;;;;5030368;28;20049;-73
2021/12/07 03:39:32;;;;;;;17.52;12.70;;;3.50;85.90;;;;;;5028192;28;20021;-73
2021/12/07 03:41:58;;;;;;;16.92;12.85;;;3.50;85.80;;;;;;5029402;28;20503;-73
2021/12/07 03:44:23;;;;;;;18.20;13.85;;;3.50;85.70;;;;;;5029891;28;20029;-73
2021/12/07 03:46:49;;;;;;;17.05;12.60;;;3.50;85.70;;;;;;5029564;28;20044;-73
2021/12/07 03:49:15;;;;;;;16.23;12.77;;;3.50;85.70;;;;;;5029911;28;20026;-74
2021/12/07 03:51:41;;;;;;;15.70;12.60;;;3.50;85.50;;;;;;5029769;28;20036;-73
2021/12/07 03:54:07;;;;;;;17.17;12.82;;;3.50;85.40;;;;;;5029810;28;20049;-73
2021/12/07 03:56:33;;;;;;;15.02;11.32;;;3.40;85.50;;;;;;5028204;28;20056;-74
2021/12/07 03:58:59;;;;;;;20.35;12.63;;;3.40;85.60;;;;;;5028751;28;20048;-73
2021/12/07 04:01:25;;;;;;;16.75;12.70;;;3.40;85.70;;;;;;5029534;28;20041;-73
2021/12/07 04:03:53;;;;;;;16.90;10.48;;;3.40;85.80;;;;;;5028112;28;20095;-74
2021/12/07 04:06:20;;;;;;;17.60;11.38;;;3.40;86.20;;;;;;5029515;28;20083;-74
2021/12/07 04:08:46;;;;;;;18.05;12.77;;;3.40;86.40;;;;;;5028619;28;20026;-74
2021/12/07 04:11:13;;;;;;;15.98;10.90;;;3.40;87.00;;;;;;5029031;28;20524;-74
2021/12/07 04:13:40;;;;;;;15.70;10.25;;;3.40;86.50;;;;;;5029339;28;20026;-74
2021/12/07 04:16:08;;;;;;;12.45;9.65;;;3.40;86.80;;;;;;5029118;28;20038;-74
2021/12/07 04:18:35;;;;;;;22.40;11.85;;;3.40;86.90;;;;;;5029657;28;20388;-74
2021/12/07 04:21:02;;;;;;;21.15;12.57;;;3.40;87.00;;;;;;5027810;28;20052;-74
2021/12/07 04:23:29;;;;;;;19.55;12.98;;;3.50;87.10;;;;;;5029504;28;20494;-73
2021/12/07 04:25:55;;;;;;;16.65;12.75;;;3.40;86.90;;;;;;5028863;28;20031;-74
2021/12/07 04:28:20;;;;;;;19.33;13.35;;;3.40;86.70;;;;;;5028903;28;20128;-74
2021/12/07 04:30:46;;;;;;;19.35;13.95;;;3.40;86.60;;;;;;5026266;28;20052;-74
2021/12/07 04:33:14;;;;;;;19.80;13.60;;;3.40;86.60;;;;;;5028382;28;20026;-74
2021/12/07 04:35:43;;;;;;;15.98;12.38;;;3.40;86.50;;;;;;5026647;28;20191;-76
2021/12/07 04:38:09;;;;;;;14.60;11.68;;;3.40;86.40;;;;;;5029157;28;20033;-76
2021/12/07 04:40:36;;;;;;;15.95;12.50;;;3.40;86.30;;;;;;5028606;28;20107;-76
2021/12/07 04:43:02;;;;;;;17.98;12.57;;;3.40;86.20;;;;;;5028691;28;20025;-76
2021/12/07 04:45:54;;;;;;;18.60;12.35;;;3.40;86.10;;;;;;5029312;28;20029;-76
2021/12/07 04:59:05;;;;;;;15.15;11.20;;;3.40;85.90;;;;;;5029300;28;20076;-76
2021/12/07 05:01:32;;;;;;;15.38;11.40;;;3.40;85.80;;;;;;5020409;28;20105;-76
2021/12/07 05:04:03;;;;;;;15.45;11.10;;;3.30;85.70;;;;;;5026557;28;20083;-76
2021/12/07 05:06:29;;;;;;;18.98;11.77;;;3.40;85.80;;;;;;5026213;28;20064;-76
2021/12/07 05:09:01;;;;;;;16.65;11.63;;;3.30;85.70;;;;;;5027183;28;20025;-76
2021/12/07 05:11:43;;;;;;;12.77;9.30;;;3.30;85.70;;;;;;5010925;28;20029;-76
2021/12/07 05:17:00;;;;;;;11.73;7.45;;;3.30;85.50;;;;;;5020906;28;20428;-76
2021/12/07 05:38:26;;;;;;;22.95;9.35;;;3.20;87.40;;;;;;5024408;28;20130;-77
2021/12/07 05:40:52;;;;;;;24.10;7.85;;;3.20;88.10;;;;;;5034972;28;20080;-77
2021/12/07 05:43:18;;;;;;;16.00;7.68;;;3.30;88.60;;;;;;5031332;28;20029;-76
2021/12/07 05:45:44;;;;;;;15.77;6.63;;;3.30;88.70;;;;;;5030781;28;20404;-77
2021/12/07 05:48:09;;;;;;;15.07;5.93;;;3.30;88.80;;;;;;5031652;28;20044;-77
2021/12/07 05:50:38;;;;;;;16.27;7.03;;;3.40;89.00;;;;;;5037320;28;20025;-77
2021/12/07 05:53:05;;;;;;;19.48;6.90;;;3.40;89.30;;;;;;5032385;28;20022;-76
2021/12/07 05:55:32;;;;;;;21.30;6.80;;;3.40;89.20;;;;;;5030835;28;20038;-77
2021/12/07 05:57:58;;;;;;;16.50;6.47;;;3.40;89.30;;;;;;5031095;28;20030;-77
2021/12/07 06:00:28;;;;;;;17.23;7.40;;;3.40;89.30;;;;;;5012827;28;20377;-77
2021/12/07 06:02:56;;;;;;;20.67;8.75;;;3.40;89.10;;;;;;5032049;28;20111;-77
2021/12/07 06:05:24;;;;;;;14.75;8.27;;;3.40;88.90;;;;;;5045901;28;20036;-77
2021/12/07 06:07:50;;;;;;;19.13;7.97;;;3.40;88.50;;;;;;5036080;28;20025;-77
2021/12/07 06:10:16;;;;;;;18.90;7.30;;;3.40;88.30;;;;;;5044315;28;20485;-77
2021/12/07 06:12:42;;;;;;;15.38;7.13;;;3.40;88.40;;;;;;5032561;28;20029;-77
2021/12/07 06:15:08;;;;;;;21.27;7.65;;;3.40;88.40;;;;;;5031733;28;20080;-77
2021/12/07 06:17:34;;;;;;;17.20;7.70;;;3.40;88.70;;;;;;5031288;28;20079;-77
2021/12/07 06:20:00;;;;;;;27.45;9.50;;;3.40;88.90;;;;;;5019969;28;20037;-77
2021/12/07 06:22:26;;;;;;;19.33;7.70;;;3.40;89.10;;;;;;5016611;28;20029;-76
2021/12/07 06:24:52;;;;;;;21.63;8.38;;;3.40;89.10;;;;;;5031398;28;20036;-77
2021/12/07 06:27:17;;;;;;;19.15;8.18;;;3.40;89.50;;;;;;5031801;28;20029;-77
2021/12/07 06:29:43;;;;;;;25.45;9.38;;;3.50;89.60;;;;;;5030189;28;20029;-76
2021/12/07 06:32:09;;;;;;;29.23;9.48;;;3.50;89.70;;;;;;5031671;28;20029;-76
2021/12/07 06:34:36;;;;;;;23.67;8.40;;;3.50;89.90;;;;;;5031534;28;20068;-77
2021/12/07 06:37:04;;;;;;;21.75;8.65;;;3.50;89.90;;;;;;5031217;28;20029;-76
2021/12/07 06:39:30;;;;;;;22.63;8.48;;;3.50;90.00;;;;;;5030775;28;20071;-76
2021/12/07 06:41:56;;;;;;;22.02;8.18;;;3.60;90.10;;;;;;5030770;28;20041;-76
2021/12/07 06:44:22;;;;;;;21.27;8.35;;;3.50;90.10;;;;;;5031642;28;20033;-77
2021/12/07 06:46:48;;;;;;;20.08;7.47;;;3.60;90.10;;;;;;5030097;28;20064;-76
2021/12/07 06:49:15;;;;;;;20.58;7.80;;;3.60;90.00;;;;;;5029762;28;20060;-77
2021/12/07 06:51:41;;;;;;;21.63;7.65;;;3.60;90.00;;;;;;5031236;28;20095;-77
2021/12/07 06:54:07;;;;;;;27.95;8.23;;;3.60;89.70;;;;;;5030140;28;20026;-76
2021/12/07 06:56:33;;;;;;;16.33;6.75;;;3.60;89.60;;;;;;5029032;28;20033;-76
2021/12/07 06:58:59;;;;;;;16.40;6.88;;;3.60;89.40;;;;;;5029392;28;20033;-77
2021/12/07 07:01:24;;;;;;;15.85;7.63;;;3.60;89.10;;;;;;5030334;28;20032;-77
2021/12/07 07:03:50;;;;;;;17.17;7.28;;;3.50;88.80;;;;;;5030039;28;20037;-76
2021/12/07 07:06:16;;;;;;;19.02;7.05;;;3.50;88.60;;;;;;5028946;28;20461;-77
2021/12/07 07:08:42;;;;;;;14.35;6.47;;;3.50;88.30;;;;;;5030502;28;20423;-76
2021/12/07 07:11:07;;;;;;;19.48;7.65;;;3.40;88.20;;;;;;5030991;28;20108;-76
2021/12/07 07:13:33;;;;;;;17.25;7.22;;;3.40;88.10;;;;;;5031211;28;20025;-76
2021/12/07 07:16:00;;;;;;;17.17;6.88;;;3.40;88.00;;;;;;5029305;28;20404;-77
2021/12/07 07:18:26;;;;;;;12.73;6.13;;;3.40;87.90;;;;;;5030691;28;20029;-77
2021/12/07 07:20:54;;;;;;;20.48;6.70;;;3.40;87.80;;;;;;5030222;28;20060;-76
2021/12/07 07:23:20;;;;;;;17.67;7.30;;;3.30;87.60;;;;;;5029322;28;20502;-76
2021/12/07 07:25:46;;;;;;;21.33;6.90;;;3.30;87.50;;;;;;5027548;28;20108;-76
2021/12/07 07:28:15;;;;;;;16.83;6.88;;;3.30;87.50;;;;;;5029150;28;20021;-76
2021/12/07 07:30:40;;;;;;;21.67;7.07;;;3.30;87.50;;;;;;5035404;28;20029;-76
2021/12/07 07:33:06;;;;;;;15.65;6.05;;;3.30;87.40;;;;;;5028998;28;20029;-76
2021/12/07 07:35:32;;;;;;;13.90;6.38;;;3.30;87.30;;;;;;5030636;28;20045;-77
2021/12/07 07:38:00;;;;;;;17.90;6.65;;;3.20;87.20;;;;;;5029635;28;20044;-73
2021/12/07 07:40:26;;;;;;;13.50;5.97;;;3.30;87.30;;;;;;5031543;28;20057;-76
2021/12/07 07:42:52;;;;;;;17.48;6.57;;;3.20;87.80;;;;;;5032590;28;20052;-74
2021/12/07 07:45:18;;;;;;;15.23;6.07;;;3.20;87.20;;;;;;5029450;28;20025;-73
2021/12/07 07:47:44;;;;;;;16.35;6.13;;;3.20;87.10;;;;;;5029544;28;20474;-74
2021/12/07 07:50:12;;;;;;;12.13;6.18;;;3.30;87.10;;;;;;5010291;28;20037;-70
2021/12/07 07:52:38;;;;;;;16.90;5.80;;;3.20;87.20;;;;;;5029078;28;20516;-72
2021/12/07 07:55:05;;;;;;;13.70;6.20;;;3.20;87.00;;;;;;5027232;28;20358;-70
2021/12/07 07:57:31;;;;;;;13.73;5.88;;;3.20;86.90;;;;;;5026844;28;20037;-74
2021/12/07 07:59:57;;;;;;;16.63;6.68;;;3.20;86.90;;;;;;5028166;28;20035;-74
2021/12/07 08:02:22;;;;;;;18.48;6.25;;;3.20;87.10;;;;;;5015753;28;20480;-73
2021/12/07 08:04:48;;;;;;;16.15;6.13;;;3.20;87.20;;;;;;5040131;28;20029;-70
2021/12/07 08:07:14;;;;;;;12.55;5.93;;;3.30;87.20;;;;;;5035357;28;20413;-72
2021/12/07 08:09:40;;;;;;;18.42;6.60;;;3.30;87.30;;;;;;5028432;28;20316;-70
2021/12/07 08:12:07;;;;;;;21.02;6.95;;;3.30;87.90;;;;;;5009269;28;20033;-72
2021/12/07 08:14:34;;;;;;;17.65;5.78;;;3.30;88.20;;;;;;5028532;28;20031;-72
2021/12/07 08:16:59;;;;;;;16.23;6.18;;;3.30;88.20;;;;;;5011634;28;20037;-71
2021/12/07 08:19:25;;;;;;;20.40;5.97;;;3.30;88.30;;;;;;5026938;28;20111;-72
2021/12/07 08:21:51;;;;;;;14.23;7.00;;;3.30;88.10;;;;;;5027545;28;20040;-69
2021/12/07 08:24:16;;;;;;;14.70;5.72;;;3.40;88.00;;;;;;5030534;28;20065;-71
2021/12/07 08:26:43;;;;;;;15.65;5.57;;;3.40;87.90;;;;;;5028734;28;20021;-73
2021/12/07 08:29:08;;;;;;;15.18;4.82;;;3.40;88.10;;;;;;5027828;28;20431;-75
2021/12/07 08:31:34;;;;;;;15.65;5.70;;;3.40;88.30;;;;;;5026474;28;20029;-75
2021/12/07 08:34:00;;;;;;;11.15;5.28;;;3.40;88.50;;;;;;5012274;28;20465;-74
2021/12/07 08:36:27;;;;;;;20.83;5.30;;;3.50;88.80;;;;;;5015595;28;20040;-74
2021/12/07 08:38:53;;;;;;;17.80;5.88;;;3.50;88.90;;;;;;5026634;28;20037;-74
2021/12/07 08:41:20;;;;;;;13.35;4.70;;;3.50;89.00;;;;;;5010530;28;20374;-74
2021/12/07 08:43:45;;;;;;;12.98;4.38;;;3.60;89.20;;;;;;5018521;28;20035;-74
2021/12/07 08:46:14;;;;;;;18.38;5.00;;;3.60;89.40;;;;;;5027399;28;20104;-74
2021/12/07 08:48:41;;;;;;;13.40;4.60;;;3.60;89.50;;;;;;5027594;28;20060;-74
2021/12/07 08:51:08;;;;;;;13.13;5.32;;;3.70;89.60;;;;;;5025867;28;20051;-74
2021/12/07 08:53:37;;;;;;;11.63;4.63;;;3.70;89.60;;;;;;5021617;28;20026;-74
2021/12/07 09:01:33;;;;;;;23.05;6.03;;;3.80;89.70;;;;;;5022860;28;20067;-74
2021/12/07 09:03:59;;;;;;;14.77;6.20;;;3.80;89.80;;;;;;5026325;28;20412;-74
2021/12/07 09:06:26;;;;;;;14.23;5.47;;;3.80;89.80;;;;;;5020516;28;20022;-74
2021/12/07 09:08:51;;;;;;;21.50;8.20;;;3.90;89.90;;;;;;5023132;28;20029;-74
2021/12/07 09:11:17;;;;;;;18.73;6.70;;;3.90;90.00;;;;;;5020897;28;20045;-74
2021/12/07 09:13:44;;;;;;;24.45;8.63;;;3.90;90.00;;;;;;5024825;28;20033;-75
2021/12/07 09:16:11;;;;;;;18.63;6.65;;;3.90;90.00;;;;;;5028994;28;20377;-75
2021/12/07 09:18:38;;;;;;;15.98;6.68;;;4.00;90.00;;;;;;5027727;28;20442;-75
2021/12/07 09:21:05;;;;;;;19.83;7.65;;;4.00;89.90;;;;;;5045783;28;20045;-74
2021/12/07 09:23:31;;;;;;;18.88;7.35;;;4.10;90.00;;;;;;5024675;28;20115;-75
2021/12/07 09:25:57;;;;;;;16.67;6.63;;;4.10;90.00;;;;;;5009112;28;20030;-75
2021/12/07 09:28:24;;;;;;;21.20;9.68;;;4.10;89.80;;;;;;5024243;28;20480;-75
2021/12/07 09:30:53;;;;;;;28.45;9.27;;;4.10;89.70;;;;;;5010704;28;20141;-75
2021/12/07 09:33:21;;;;;;;22.50;8.52;;;4.10;89.70;;;;;;5027267;28;20049;-74
2021/12/07 09:35:48;;;;;;;25.95;8.52;;;4.10;89.90;;;;;;5030714;28;20044;-74
2021/12/07 09:38:14;;;;;;;23.38;7.97;;;4.10;89.90;;;;;;5024199;28;20404;-74
2021/12/07 09:40:42;;;;;;;22.13;8.15;;;4.10;90.00;;;;;;5024130;28;20025;-74
2021/12/07 09:43:09;;;;;;;20.23;7.53;;;4.20;90.00;;;;;;5021058;28;20433;-74
2021/12/07 09:45:35;;;;;;;23.52;7.97;;;4.20;90.00;;;;;;5030975;28;20029;-75
2021/12/07 09:48:04;;;;;;;24.35;8.57;;;4.30;90.00;;;;;;5029785;28;20868;-75
2021/12/07 09:50:31;;;;;;;22.77;8.60;;;4.30;89.90;;;;;;5023187;28;20026;-74
2021/12/07 09:52:57;;;;;;;28.40;9.07;;;4.40;89.90;;;;;;5022349;28;20108;-74
2021/12/07 09:55:25;;;;;;;22.05;9.02;;;4.40;89.80;;;;;;5015485;28;20057;-74
2021/12/07 09:57:52;;;;;;;22.92;7.53;;;4.50;89.70;;;;;;5014151;28;20431;-74
2021/12/07 10:00:21;;;;;;;25.35;8.85;;;4.60;89.60;;;;;;5024594;28;20455;-74
2021/12/07 10:02:48;;;;;;;20.50;8.60;;;4.60;89.40;;;;;;5028984;28;20124;-73
2021/12/07 10:05:17;;;;;;;29.30;8.27;;;4.70;89.20;;;;;;5028412;28;20029;-72
2021/12/07 10:07:43;;;;;;;20.63;7.60;;;4.60;89.10;;;;;;5017098;28;20037;-73
2021/12/07 10:10:19;;;;;;;23.10;7.72;;;4.70;89.20;;;;;;5018856;28;20046;-72
2021/12/07 10:12:45;;;;;;;22.52;8.65;;;4.70;89.10;;;;;;5019875;28;20021;-70
2021/12/07 10:15:11;;;;;;;17.45;7.00;;;4.70;88.90;;;;;;5017515;28;20473;-70
2021/12/07 10:17:38;;;;;;;23.92;8.15;;;4.80;89.00;;;;;;5024941;28;20041;-70
2021/12/07 10:20:23;;;;;;;21.17;7.47;;;4.90;89.10;;;;;;5027040;28;20358;-70
2021/12/07 10:22:51;;;;;;;20.20;8.27;;;5.10;88.70;;;;;;5030942;28;20053;-70
2021/12/07 10:25:27;;;;;;;23.25;8.13;;;5.20;88.50;;;;;;5030010;28;20033;-70
2021/12/07 10:27:55;;;;;;;23.23;7.65;;;5.30;87.80;;;;;;5018144;28;20029;-70
2021/12/07 10:30:22;;;;;;;18.38;6.95;;;5.50;87.50;;;;;;5033471;28;20029;-70
2021/12/07 10:33:04;;;;;;;16.20;6.43;;;5.70;87.10;;;;;;5031161;28;20506;-70
2021/12/07 10:35:31;;;;;;;;;;;6.00;86.60;;;;;;5038299;28;20021;-70
2021/12/07 10:38:16;;;;;;;19.63;7.45;;;6.30;85.10;;;;;;5033924;28;20179;-70
2021/12/07 10:40:55;;;;;;;20.63;6.72;;;6.40;84.60;;;;;;5019328;28;20033;-70
2021/12/07 10:43:42;;;;;;;20.67;6.55;;;6.40;84.20;;;;;;5012942;28;20037;-70
2021/12/07 10:46:32;;;;;;;21.38;6.60;;;6.60;84.30;;;;;;5023713;28;20026;-70
2021/12/07 10:49:42;;;;;;;18.13;6.28;;;7.00;82.80;;;;;;5023744;28;20057;-70
2021/12/07 10:52:19;;;;;;;16.63;6.20;;;7.50;81.00;;;;;;5012916;28;20566;-71
2021/12/07 10:54:50;;;;;;;21.13;5.55;;;7.80;79.70;;;;;;5024739;28;20499;-70
2021/12/07 10:57:21;;;;;;;15.25;5.45;;;8.10;78.50;;;;;;5015649;28;20033;-70
2021/12/07 11:00:00;;;;;;;15.00;5.25;;;8.50;77.90;;;;;;5027648;28;20095;-70
2021/12/07 11:02:31;;;;;;;20.83;6.72;;;9.10;76.90;;;;;;5027717;28;20118;-70
2021/12/07 11:04:57;;;;;;;15.85;5.07;;;10.20;74.00;;;;;;5027357;28;20040;-70
2021/12/07 11:07:25;;;;;;;13.05;4.35;;;10.50;70.00;;;;;;5026638;28;20452;-70
2021/12/07 11:10:15;;;;;;;15.48;4.88;;;10.70;71.60;;;;;;5034518;28;20536;-71
2021/12/07 11:12:57;;;;;;;14.07;4.38;;;10.80;70.30;;;;;;5029300;28;20494;-71
2021/12/07 11:15:26;;;;;;;10.05;4.13;;;11.10;69.50;;;;;;5026234;28;20021;-71
2021/12/07 11:18:12;;;;;;;15.73;4.20;;;11.60;68.60;;;;;;5037408;28;20056;-72
2021/12/07 11:20:39;;;;;;;14.55;4.50;;;12.20;67.50;;;;;;5027321;28;20490;-71
2021/12/07 11:23:13;;;;;;;15.20;5.03;;;12.70;63.70;;;;;;5028125;28;20825;-71
2021/12/07 11:31:32;;;;;;;15.02;4.53;;;14.20;61.60;;;;;;5026986;28;20566;-71
2021/12/07 11:34:10;;;;;;;8.68;3.75;;;14.60;57.60;;;;;;5061930;28;20044;-71
2021/12/07 11:36:49;;;;;;;10.80;4.20;;;14.80;57.40;;;;;;5026635;28;20119;-71
2021/12/07 11:39:47;;;;;;;12.90;4.18;;;15.20;57.30;;;;;;5024235;28;20053;-72
2021/12/07 11:42:14;;;;;;;15.00;4.47;;;15.70;56.20;;;;;;5026878;28;20068;-71
2021/12/07 11:44:57;;;;;;;10.63;3.60;;;16.10;55.00;;;;;;5029749;28;20068;-71
2021/12/07 11:47:35;;;;;;;10.60;3.88;;;16.40;54.40;;;;;;5029861;28;20472;-72
2021/12/07 11:50:28;;;;;;;12.82;3.78;;;16.70;53.60;;;;;;5026066;28;20049;-72
2021/12/07 11:52:58;;;;;;;9.80;3.70;;;16.60;50.60;;;;;;5024645;28;20029;-72
2021/12/07 11:55:24;;;;;;;10.95;3.65;;;16.70;51.80;;;;;;5024048;28;20060;-72
2021/12/07 11:57:50;;;;;;;8.73;3.40;;;16.40;51.80;;;;;;5018858;28;20029;-72
2021/12/07 12:00:28;;;;;;;9.02;3.83;;;16.10;52.30;;;;;;5023932;28;20400;-72
2021/12/07 12:02:54;;;;;;;11.23;4.03;;;16.10;52.80;;;;;;5025619;28;20068;-72
2021/12/07 12:05:20;;;;;;;12.23;4.60;;;16.20;52.50;;;;;;5021312;28;20380;-72
2021/12/07 12:07:48;;;;;;;10.07;3.90;;;16.00;52.30;;;;;;5017673;28;20559;-72
2021/12/07 12:10:18;;;;;;;9.32;3.85;;;15.80;52.80;;;;;;5010718;28;20088;-72
2021/12/07 12:12:53;;;;;;;10.57;3.40;;;15.60;52.10;;;;;;5023442;28;20076;-72
2021/12/07 12:16:04;;;;;;;12.35;3.60;;;15.20;52.90;;;;;;5015791;28;20047;-72
2021/12/07 12:18:42;;;;;;;12.32;3.28;;;14.80;54.20;;;;;;5023735;28;20046;-72
2021/12/07 12:21:26;;;;;;;12.63;3.75;;;14.70;54.90;;;;;;5016207;28;20037;-72
2021/12/07 12:24:19;;;;;;;10.20;3.92;;;14.70;55.00;;;;;;5018191;28;20083;-72
2021/12/07 12:26:45;;;;;;;9.50;3.70;;;14.60;55.30;;;;;;5023668;28;20491;-72
2021/12/07 12:29:23;;;;;;;8.35;2.90;;;14.60;55.70;;;;;;5020031;28;20318;-72
2021/12/07 12:31:58;;;;;;;11.02;3.22;;;14.70;55.90;;;;;;5019468;28;20025;-72
2021/12/07 12:34:30;;;;;;;8.73;3.60;;;14.60;56.10;;;;;;5024856;28;20021;-72
2021/12/07 12:37:00;;;;;;;9.38;3.28;;;14.40;56.50;;;;;;5028416;28;20264;-71
2021/12/07 12:39:50;;;;;;;10.70;3.90;;;14.20;56.80;;;;;;5027662;28;20034;-72
2021/12/07 12:42:38;;;;;;;12.63;3.65;;;14.00;56.50;;;;;;5027939;28;20033;-71
2021/12/07 12:45:23;;;;;;;11.43;3.63;;;13.60;57.00;;;;;;5028247;28;20026;-72
2021/12/07 12:48:03;;;;;;;11.20;3.85;;;13.30;57.90;;;;;;5024548;28;20032;-72
2021/12/07 12:50:30;;;;;;;10.30;3.90;;;13.00;58.80;;;;;;5028601;28;20041;-72
2021/12/07 12:53:17;;;;;;;10.05;3.90;;;12.70;59.80;;;;;;5023244;28;20045;-72
2021/12/07 12:55:48;;;;;;;10.68;3.63;;;12.30;60.80;;;;;;5017639;28;20013;-72
2021/12/07 12:58:42;;;;;;;9.88;3.33;;;12.10;61.60;;;;;;5034060;28;20320;-72
2021/12/07 13:01:22;;;;;;;9.60;2.85;;;11.70;62.10;;;;;;5038086;28;20060;-72
2021/12/07 13:04:14;;;;;;;14.32;3.20;;;11.60;63.10;;;;;;5011926;28;20056;-72
2021/12/07 13:09:42;;;;;;;12.40;3.28;;;11.20;63.50;;;;;;5021191;28;20547;-71
2021/12/07 13:12:12;;;;;;;;;;;11.10;63.60;;;;;;5015834;28;20040;-72
2021/12/07 13:14:51;;;;;;;11.65;3.20;;;11.00;64.00;;;;;;5022578;28;19920;-72
2021/12/07 13:17:34;;;;;;;13.00;3.85;;;11.00;64.60;;;;;;5021732;28;20049;-72
2021/12/07 13:20:23;;;;;;;9.60;2.88;;;11.00;64.90;;;;;;5013394;28;20484;-71
2021/12/07 13:22:57;;;;;;;10.85;3.60;;;10.90;65.10;;;;;;5019990;28;20172;-71
2021/12/07 13:25:45;;;;;;;8.98;3.42;;;10.90;64.90;;;;;;5035916;28;20442;-71
2021/12/07 13:28:33;;;;;;;14.15;4.32;;;10.70;65.20;;;;;;5023409;28;20041;-71
2021/12/07 13:31:14;;;;;;;11.75;3.53;;;10.50;65.70;;;;;;5027803;28;20025;-71
2021/12/07 13:33:52;;;;;;;10.55;3.33;;;10.40;66.10;;;;;;5018660;28;20026;-71
2021/12/07 13:36:38;;;;;;;8.32;2.95;;;10.20;66.40;;;;;;5012507;28;20427;-71
2021/12/07 13:39:27;;;;;;;13.93;3.75;;;10.10;66.70;;;;;;5019652;28;20401;-71
2021/12/07 13:42:03;;;;;;;13.38;3.60;;;10.00;67.00;;;;;;5024976;28;20550;-71
2021/12/07 13:44:36;;;;;;;11.43;4.07;;;9.90;67.30;;;;;;5021216;28;20096;-71
2021/12/07 13:47:14;;;;;;;10.38;3.67;;;9.70;67.50;;;;;;5017778;28;20551;-71
2021/12/07 13:49:45;;;;;;;10.88;3.60;;;9.50;68.20;;;;;;5019157;28;20099;-71
2021/12/07 13:52:14;;;;;;;9.45;3.42;;;9.50;68.80;;;;;;5019169;28;20057;-71
2021/12/07 13:54:46;;;;;;;11.35;3.85;;;9.40;68.90;;;;;;5014988;28;20033;-71
2021/12/07 13:57:17;;;;;;;7.77;3.57;;;9.30;69.00;;;;;;5024434;28;20080;-71
2021/12/07 13:59:54;;;;;;;14.43;3.53;;;9.20;69.30;;;;;;5022124;28;20108;-71
2021/12/07 14:02:23;;;;;;;13.13;4.10;;;9.10;69.60;;;;;;5026719;28;20041;-71
2021/12/07 14:04:49;;;;;;;12.40;4.03;;;9.10;70.10;;;;;;5031338;28;20025;-71
2021/12/07 14:07:18;;;;;;;8.85;3.65;;;9.00;70.40;;;;;;5035400;28;20029;-71
2021/12/07 14:09:43;;;;;;;10.30;3.65;;;8.90;70.40;;;;;;5019745;28;20041;-71
2021/12/07 14:12:09;;;;;;;12.32;3.72;;;8.90;70.50;;;;;;5025311;28;20049;-71
2021/12/07 14:14:35;;;;;;;12.70;3.80;;;8.80;70.90;;;;;;5023484;28;20052;-71
2021/12/07 14:17:00;;;;;;;9.75;3.63;;;8.70;71.00;;;;;;5030232;28;20037;-71
2021/12/07 14:19:27;;;;;;;11.38;3.53;;;8.60;71.10;;;;;;5029793;28;20030;-71
2021/12/07 14:21:53;;;;;;;8.85;3.10;;;8.60;71.40;;;;;;5023618;28;20038;-71
2021/12/07 14:24:20;;;;;;;11.25;3.65;;;8.50;71.50;;;;;;5025781;28;20029;-71
2021/12/07 14:26:47;;;;;;;8.90;3.47;;;8.50;71.50;;;;;;5019597;28;20045;-71
2021/12/07 14:29:19;;;;;;;9.23;4.05;;;8.40;71.70;;;;;;5030975;28;20041;-71
2021/12/07 14:31:46;;;;;;;10.52;3.45;;;8.40;71.90;;;;;;5028046;28;20075;-71
2021/12/07 14:34:42;;;;;;;11.82;3.80;;;8.40;71.70;;;;;;5026506;28;20061;-71
2021/12/07 14:37:08;;;;;;;9.60;3.38;;;8.30;71.90;;;;;;5022812;28;20084;-71
2021/12/07 14:39:37;;;;;;;9.77;3.67;;;8.30;72.00;;;;;;5030490;28;20143;-71
2021/12/07 14:42:07;;;;;;;10.38;3.60;;;8.30;72.10;;;;;;5029068;28;20022;-72
2021/12/07 14:44:42;;;;;;;14.52;3.63;;;8.20;72.10;;;;;;5030649;28;20028;-72
2021/12/07 14:47:09;;;;;;;14.98;3.80;;;8.20;72.50;;;;;;5025022;28;20494;-72
2021/12/07 14:49:37;;;;;;;9.13;3.42;;;8.10;72.40;;;;;;5028321;28;20180;-72
2021/12/07 14:52:25;;;;;;;11.32;3.30;;;8.10;72.60;;;;;;5028970;28;20126;-72
2021/12/07 14:54:53;;;;;;;10.93;4.38;;;8.00;72.70;;;;;;5030700;28;20025;-71
2021/12/07 14:57:20;;;;;;;13.75;5.07;;;8.00;72.70;;;;;;5027157;28;20064;-71
2021/12/07 14:59:50;;;;;;;11.55;3.38;;;7.90;72.90;;;;;;5031084;28;20029;-71
2021/12/07 15:02:16;;;;;;;10.45;3.58;;;7.90;73.10;;;;;;5030507;28;20507;-72